createdAt,value
2018-08-13T00:00:39.314Z,19.41
2018-08-13T00:01:39.441Z,19.50
2018-08-13T00:02:39.584Z,19.39
2018-08-13T00:03:39.725Z,19.37
2018-08-13T00:04:39.862Z,19.39
2018-08-13T00:05:40.006Z,19.37
2018-08-13T00:06:40.141Z,19.39
2018-08-13T00:07:40.276Z,19.30
2018-08-13T00:08:40.420Z,19.34
2018-08-13T00:09:40.559Z,19.34
2018-08-13T00:10:40.705Z,19.39
2018-08-13T00:11:40.851Z,19.37
2018-08-13T00:12:40.988Z,19.38
2018-08-13T00:13:41.131Z,19.34
2018-08-13T00:14:41.272Z,19.39
2018-08-13T00:15:41.415Z,19.39
2018-08-13T00:16:41.548Z,19.27
2018-08-13T00:17:41.707Z,19.38
2018-08-13T00:18:41.822Z,19.41
2018-08-13T00:19:41.969Z,19.35
2018-08-13T00:20:42.110Z,19.30
2018-08-13T00:21:42.252Z,19.22
2018-08-13T00:22:42.388Z,19.27
2018-08-13T00:23:42.532Z,19.17
2018-08-13T00:24:42.665Z,19.22
2018-08-13T00:25:42.808Z,19.23
2018-08-13T00:26:42.942Z,19.19
2018-08-13T00:27:43.079Z,19.17
2018-08-13T00:28:43.219Z,19.16
2018-08-13T00:29:43.362Z,19.13
2018-08-13T00:30:43.493Z,19.09
2018-08-13T00:31:43.632Z,19.19
2018-08-13T00:32:43.805Z,19.07
2018-08-13T00:33:43.906Z,19.19
2018-08-13T00:34:44.046Z,19.07
2018-08-13T00:35:44.202Z,19.07
2018-08-13T00:36:44.335Z,19.16
2018-08-13T00:37:44.531Z,19.05
2018-08-13T00:38:44.581Z,19.07
2018-08-13T00:39:44.753Z,19.01
2018-08-13T00:40:44.884Z,19.12
2018-08-13T00:41:45.025Z,19.12
2018-08-13T00:42:45.171Z,19.05
2018-08-13T00:43:45.329Z,19.08
2018-08-13T00:44:45.570Z,19.01
2018-08-13T00:45:45.573Z,19.05
2018-08-13T00:46:45.720Z,19.00
2018-08-13T00:47:45.882Z,19.01
2018-08-13T00:48:46.051Z,18.82
2018-08-13T00:49:46.155Z,18.91
2018-08-13T00:50:46.296Z,18.93
2018-08-13T00:51:46.463Z,18.86
2018-08-13T00:52:51.280Z,18.71
2018-08-13T00:53:46.789Z,18.81
2018-08-13T00:54:46.923Z,18.78
2018-08-13T00:55:47.090Z,18.68
2018-08-13T00:56:47.292Z,18.76
2018-08-13T00:57:47.306Z,18.75
2018-08-13T00:58:47.447Z,18.71
2018-08-13T00:59:47.609Z,18.71
2018-08-13T01:00:47.743Z,18.67
2018-08-13T01:01:47.881Z,18.79
2018-08-13T01:02:48.020Z,18.71
2018-08-13T01:03:48.177Z,18.76
2018-08-13T01:04:48.315Z,18.75
2018-08-13T01:05:48.453Z,18.74
2018-08-13T01:06:48.595Z,18.74
2018-08-13T01:07:48.764Z,18.71
2018-08-13T01:08:48.899Z,18.75
2018-08-13T01:09:49.039Z,18.75
2018-08-13T01:10:49.173Z,18.70
2018-08-13T01:11:49.334Z,18.71
2018-08-13T01:12:49.476Z,18.71
2018-08-13T01:13:49.612Z,18.68
2018-08-13T01:14:49.789Z,18.70
2018-08-13T01:15:49.922Z,18.68
2018-08-13T01:16:50.061Z,18.66
2018-08-13T01:17:50.197Z,18.60
2018-08-13T01:18:50.356Z,18.66
2018-08-13T01:19:50.489Z,18.70
2018-08-13T01:20:50.625Z,18.75
2018-08-13T01:21:50.794Z,18.74
2018-08-13T01:22:50.915Z,18.64
2018-08-13T01:23:51.055Z,18.71
2018-08-13T01:24:51.196Z,18.56
2018-08-13T01:25:51.358Z,18.61
2018-08-13T01:26:51.491Z,18.52
2018-08-13T01:27:51.629Z,18.60
2018-08-13T01:28:51.806Z,18.49
2018-08-13T01:29:51.937Z,18.56
2018-08-13T01:30:52.078Z,18.48
2018-08-13T01:31:52.245Z,18.46
2018-08-13T01:32:52.374Z,18.39
2018-08-13T01:33:52.517Z,18.46
2018-08-13T01:34:52.682Z,18.45
2018-08-13T01:35:52.866Z,18.57
2018-08-13T01:36:53.005Z,18.52
2018-08-13T01:37:53.144Z,18.46
2018-08-13T01:38:53.305Z,18.46
2018-08-13T01:39:53.443Z,18.45
2018-08-13T01:40:53.581Z,18.45
2018-08-13T01:41:53.743Z,18.39
2018-08-13T01:42:53.876Z,18.46
2018-08-13T01:43:54.019Z,18.43
2018-08-13T01:44:54.155Z,18.39
2018-08-13T01:45:54.309Z,18.46
2018-08-13T01:46:54.478Z,18.48
2018-08-13T01:47:54.615Z,18.45
2018-08-13T01:48:54.755Z,18.42
2018-08-13T01:49:54.912Z,18.41
2018-08-13T01:50:55.048Z,18.46
2018-08-13T01:51:55.186Z,18.42
2018-08-13T01:52:55.321Z,18.46
2018-08-13T01:53:55.481Z,18.34
2018-08-13T01:54:55.623Z,18.34
2018-08-13T01:55:55.756Z,18.38
2018-08-13T01:56:55.890Z,18.33
2018-08-13T01:57:56.034Z,18.36
2018-08-13T01:58:56.168Z,18.31
2018-08-13T01:59:56.318Z,18.34
2018-08-13T02:00:56.451Z,18.30
2018-08-13T02:01:56.593Z,18.30
2018-08-13T02:02:56.729Z,18.26
2018-08-13T02:03:56.884Z,18.28
2018-08-13T02:04:57.022Z,18.23
2018-08-13T02:05:57.161Z,18.23
2018-08-13T02:06:57.298Z,18.21
2018-08-13T02:07:57.457Z,18.20
2018-08-13T02:08:57.585Z,18.08
2018-08-13T02:09:57.722Z,18.21
2018-08-13T02:10:57.861Z,18.13
2018-08-13T02:11:58.026Z,18.12
2018-08-13T02:12:58.160Z,18.08
2018-08-13T02:13:58.311Z,18.18
2018-08-13T02:14:58.444Z,18.03
2018-08-13T02:15:58.587Z,18.03
2018-08-13T02:16:58.719Z,18.03
2018-08-13T02:17:58.860Z,18.20
2018-08-13T02:18:59.000Z,18.03
2018-08-13T02:19:59.181Z,18.12
2018-08-13T02:20:59.313Z,18.12
2018-08-13T02:21:59.449Z,18.06
2018-08-13T02:22:59.592Z,18.03
2018-08-13T02:23:59.733Z,18.03
2018-08-13T02:24:59.871Z,18.03
2018-08-13T02:26:01.021Z,18.05
2018-08-13T02:28:32.375Z,18.05
2018-08-13T02:29:32.510Z,18.06
2018-08-13T02:30:32.649Z,18.06
2018-08-13T02:31:32.805Z,18.05
2018-08-13T02:32:32.937Z,18.06
2018-08-13T02:33:33.081Z,18.01
2018-08-13T02:34:33.219Z,17.97
2018-08-13T02:35:33.366Z,17.97
2018-08-13T02:36:33.502Z,18.03
2018-08-13T02:37:33.636Z,18.09
2018-08-13T02:38:33.775Z,18.05
2018-08-13T02:39:33.929Z,18.05
2018-08-13T02:40:34.073Z,18.06
2018-08-13T02:41:34.206Z,18.08
2018-08-13T02:42:34.343Z,18.03
2018-08-13T02:43:34.507Z,18.01
2018-08-13T02:44:34.637Z,17.97
2018-08-13T02:45:34.776Z,18.05
2018-08-13T02:46:34.916Z,17.94
2018-08-13T02:47:35.072Z,17.93
2018-08-13T02:48:35.210Z,17.84
2018-08-13T02:49:35.344Z,17.91
2018-08-13T02:50:35.483Z,17.87
2018-08-13T02:51:35.629Z,17.79
2018-08-13T02:52:35.776Z,17.91
2018-08-13T02:53:35.909Z,17.84
2018-08-13T02:54:36.051Z,17.93
2018-08-13T02:55:36.185Z,17.87
2018-08-13T02:56:36.320Z,17.84
2018-08-13T02:57:36.455Z,17.81
2018-08-13T02:58:36.599Z,17.75
2018-08-13T02:59:36.757Z,17.71
2018-08-13T03:00:36.882Z,17.76
2018-08-13T03:01:37.020Z,17.81
2018-08-13T03:02:37.160Z,17.71
2018-08-13T03:03:37.294Z,17.71
2018-08-13T03:04:37.479Z,17.69
2018-08-13T03:05:37.601Z,17.69
2018-08-13T03:06:37.741Z,17.69
2018-08-13T03:07:37.963Z,17.66
2018-08-13T03:08:38.029Z,17.72
2018-08-13T03:09:38.166Z,17.62
2018-08-13T03:10:38.300Z,17.66
2018-08-13T03:11:38.465Z,17.66
2018-08-13T03:12:38.669Z,17.66
2018-08-13T03:13:38.682Z,17.65
2018-08-13T03:14:38.812Z,17.65
2018-08-13T03:15:38.957Z,17.62
2018-08-13T03:16:39.116Z,17.62
2018-08-13T03:17:39.308Z,17.59
2018-08-13T03:18:39.317Z,17.53
2018-08-13T03:19:39.458Z,17.52
2018-08-13T03:20:39.599Z,17.53
2018-08-13T03:21:39.735Z,17.54
2018-08-13T03:22:39.873Z,17.45
2018-08-13T03:23:40.017Z,17.52
2018-08-13T03:24:40.155Z,17.53
2018-08-13T03:25:40.322Z,17.49
2018-08-13T03:26:40.456Z,17.52
2018-08-13T03:27:40.590Z,17.52
2018-08-13T03:28:40.736Z,17.49
2018-08-13T03:29:40.870Z,17.56
2018-08-13T03:30:41.007Z,17.50
2018-08-13T03:31:41.143Z,17.50
2018-08-13T03:32:41.282Z,17.62
2018-08-13T03:33:41.515Z,17.54
2018-08-13T03:34:41.533Z,17.63
2018-08-13T03:35:41.703Z,17.69
2018-08-13T03:36:41.828Z,17.59
2018-08-13T03:37:41.998Z,17.57
2018-08-13T03:38:42.101Z,17.54
2018-08-13T03:39:42.261Z,17.59
2018-08-13T03:40:42.430Z,17.56
2018-08-13T03:41:42.577Z,17.59
2018-08-13T03:42:42.710Z,17.54
2018-08-13T03:43:42.851Z,17.54
2018-08-13T03:44:42.990Z,17.50
2018-08-13T03:45:43.190Z,17.49
2018-08-13T03:46:43.208Z,17.45
2018-08-13T03:47:43.357Z,17.37
2018-08-13T03:48:43.494Z,17.32
2018-08-13T03:49:43.652Z,17.30
2018-08-13T03:50:43.795Z,17.27
2018-08-13T03:51:43.942Z,17.25
2018-08-13T03:52:44.074Z,17.28
2018-08-13T03:53:44.267Z,17.20
2018-08-13T03:54:44.352Z,17.22
2018-08-13T03:55:44.526Z,17.25
2018-08-13T03:56:44.688Z,17.25
2018-08-13T03:57:44.826Z,17.24
2018-08-13T03:58:44.968Z,17.30
2018-08-13T03:59:45.131Z,17.14
2018-08-13T04:00:45.262Z,17.24
2018-08-13T04:01:45.394Z,17.19
2018-08-13T04:02:45.542Z,17.31
2018-08-13T04:03:45.679Z,17.22
2018-08-13T04:04:45.861Z,17.19
2018-08-13T04:05:46.005Z,17.25
2018-08-13T04:06:46.144Z,17.25
2018-08-13T04:07:46.313Z,17.28
2018-08-13T04:08:46.446Z,17.22
2018-08-13T04:09:46.580Z,17.22
2018-08-13T04:10:46.721Z,17.22
2018-08-13T04:11:46.875Z,17.27
2018-08-13T04:12:47.052Z,17.22
2018-08-13T04:13:47.214Z,17.17
2018-08-13T04:14:47.325Z,17.20
2018-08-13T04:15:47.491Z,17.24
2018-08-13T04:16:47.624Z,17.22
2018-08-13T04:17:47.765Z,17.19
2018-08-13T04:18:47.935Z,17.20
2018-08-13T04:19:48.068Z,17.19
2018-08-13T04:20:48.225Z,17.20
2018-08-13T04:21:48.359Z,17.22
2018-08-13T04:22:48.495Z,17.31
2018-08-13T04:23:48.634Z,17.20
2018-08-13T04:24:48.794Z,17.24
2018-08-13T04:25:48.933Z,17.27
2018-08-13T04:26:49.075Z,17.24
2018-08-13T04:27:49.281Z,17.31
2018-08-13T04:28:49.374Z,17.25
2018-08-13T04:29:49.513Z,17.28
2018-08-13T04:30:49.650Z,17.24
2018-08-13T04:31:49.787Z,17.19
2018-08-13T04:32:49.991Z,17.24
2018-08-13T04:33:50.104Z,17.20
2018-08-13T04:34:50.229Z,17.24
2018-08-13T04:35:50.366Z,17.31
2018-08-13T04:36:50.508Z,17.25
2018-08-13T04:37:50.663Z,17.22
2018-08-13T04:38:50.807Z,17.10
2018-08-13T04:39:50.953Z,17.22
2018-08-13T04:40:51.093Z,17.19
2018-08-13T04:41:51.281Z,17.19
2018-08-13T04:42:51.404Z,17.30
2018-08-13T04:43:51.542Z,17.25
2018-08-13T04:44:51.681Z,17.24
2018-08-13T04:45:51.835Z,17.30
2018-08-13T04:46:52.084Z,17.24
2018-08-13T04:47:52.100Z,17.20
2018-08-13T04:48:52.242Z,17.20
2018-08-13T04:49:52.383Z,17.22
2018-08-13T04:50:52.518Z,17.28
2018-08-13T04:51:52.655Z,17.28
2018-08-13T04:52:52.795Z,17.28
2018-08-13T04:53:52.977Z,17.27
2018-08-13T04:54:53.104Z,17.27
2018-08-13T04:55:53.242Z,17.20
2018-08-13T04:56:53.425Z,17.19
2018-08-13T04:57:53.563Z,17.20
2018-08-13T04:58:53.725Z,17.25
2018-08-13T04:59:53.856Z,17.28
2018-08-13T05:00:54.023Z,17.25
2018-08-13T05:01:54.132Z,17.28
2018-08-13T05:02:54.296Z,17.19
2018-08-13T05:03:54.432Z,17.20
2018-08-13T05:04:54.563Z,17.25
2018-08-13T05:05:54.702Z,17.24
2018-08-13T05:06:54.860Z,17.28
2018-08-13T05:07:54.992Z,17.20
2018-08-13T05:08:55.131Z,17.28
2018-08-13T05:09:55.274Z,17.27
2018-08-13T05:10:55.419Z,17.25
2018-08-13T05:11:55.588Z,17.28
2018-08-13T05:12:55.723Z,17.20
2018-08-13T05:13:55.859Z,17.28
2018-08-13T05:14:56.033Z,17.22
2018-08-13T05:15:56.167Z,17.02
2018-08-13T05:16:56.316Z,17.16
2018-08-13T05:17:56.485Z,17.12
2018-08-13T05:18:56.619Z,16.94
2018-08-13T05:19:56.758Z,17.01
2018-08-13T05:20:56.899Z,16.98
2018-08-13T05:21:57.049Z,16.95
2018-08-13T05:22:57.180Z,17.02
2018-08-13T05:23:57.331Z,16.84
2018-08-13T05:24:57.469Z,16.82
2018-08-13T05:25:57.627Z,16.92
2018-08-13T05:26:57.769Z,16.94
2018-08-13T05:27:57.902Z,16.82
2018-08-13T05:28:58.042Z,16.72
2018-08-13T05:29:58.252Z,16.73
2018-08-13T05:30:58.357Z,16.70
2018-08-13T05:31:58.489Z,16.80
2018-08-13T05:32:58.627Z,16.98
2018-08-13T05:33:58.830Z,16.90
2018-08-13T05:34:58.945Z,17.04
2018-08-13T05:35:59.075Z,17.01
2018-08-13T05:36:59.216Z,17.16
2018-08-13T05:37:59.359Z,17.14
2018-08-13T05:38:59.528Z,17.17
2018-08-13T05:39:59.688Z,17.22
2018-08-13T05:40:59.816Z,17.25
2018-08-13T05:42:00.007Z,17.34
2018-08-13T05:43:00.129Z,17.22
2018-08-13T05:44:00.265Z,17.37
2018-08-13T05:45:00.404Z,17.37
2018-08-13T05:46:00.574Z,17.53
2018-08-13T05:47:00.776Z,17.57
2018-08-13T05:48:00.784Z,17.56
2018-08-13T05:49:00.926Z,17.62
2018-08-13T05:50:01.073Z,17.57
2018-08-13T05:51:01.205Z,17.68
2018-08-13T05:52:01.339Z,17.78
2018-08-13T05:53:01.498Z,17.73
2018-08-13T05:54:01.630Z,17.79
2018-08-13T05:55:01.761Z,17.76
2018-08-13T05:56:01.909Z,17.86
2018-08-13T05:57:02.047Z,17.83
2018-08-13T05:58:02.178Z,17.87
2018-08-13T05:59:02.316Z,17.88
2018-08-13T06:00:02.459Z,18.05
2018-08-13T06:01:02.615Z,18.02
2018-08-13T06:02:02.786Z,18.05
2018-08-13T06:03:02.977Z,18.05
2018-08-13T06:04:03.061Z,18.02
2018-08-13T06:05:03.198Z,18.08
2018-08-13T06:06:03.378Z,18.05
2018-08-13T06:07:03.518Z,18.08
2018-08-13T06:08:03.658Z,18.23
2018-08-13T06:09:03.796Z,18.12
2018-08-13T06:10:03.977Z,18.13
2018-08-13T06:11:04.108Z,18.20
2018-08-13T06:12:04.268Z,18.20
2018-08-13T06:13:04.402Z,18.28
2018-08-13T06:14:04.538Z,18.33
2018-08-13T06:15:04.677Z,18.39
2018-08-13T06:16:04.839Z,18.38
2018-08-13T06:17:04.971Z,18.48
2018-08-13T06:18:05.142Z,18.39
2018-08-13T06:19:05.274Z,18.48
2018-08-13T06:20:05.507Z,18.45
2018-08-13T06:21:05.521Z,18.42
2018-08-13T06:22:05.671Z,18.42
2018-08-13T06:23:05.815Z,18.43
2018-08-13T06:24:05.949Z,18.43
2018-08-13T06:25:06.101Z,18.38
2018-08-13T06:26:06.241Z,18.43
2018-08-13T06:27:06.373Z,18.48
2018-08-13T06:28:06.530Z,18.56
2018-08-13T06:29:06.647Z,18.51
2018-08-13T06:30:06.806Z,18.52
2018-08-13T06:31:06.938Z,18.52
2018-08-13T06:32:07.076Z,18.64
2018-08-13T06:33:07.249Z,18.58
2018-08-13T06:34:07.377Z,18.58
2018-08-13T06:35:07.514Z,18.48
2018-08-13T06:36:07.649Z,18.39
2018-08-13T06:37:07.842Z,18.56
2018-08-13T06:38:07.963Z,18.48
2018-08-13T06:39:08.101Z,18.49
2018-08-13T06:40:08.236Z,18.58
2018-08-13T06:41:08.386Z,18.60
2018-08-13T06:42:08.512Z,18.60
2018-08-13T06:43:08.649Z,18.60
2018-08-13T06:44:08.794Z,18.66
2018-08-13T06:45:08.959Z,18.81
2018-08-13T06:46:09.160Z,18.82
2018-08-13T06:47:09.276Z,18.83
2018-08-13T06:48:09.257Z,18.79
2018-08-13T06:49:09.405Z,18.89
2018-08-13T06:50:09.541Z,18.85
2018-08-13T06:51:09.684Z,18.96
2018-08-13T06:52:09.825Z,19.01
2018-08-13T06:53:09.979Z,19.09
2018-08-13T06:54:10.134Z,19.00
2018-08-13T06:55:10.276Z,19.09
2018-08-13T06:56:10.412Z,19.13
2018-08-13T06:57:10.573Z,19.27
2018-08-13T06:58:10.710Z,19.26
2018-08-13T06:59:10.848Z,19.30
2018-08-13T07:00:10.988Z,19.30
2018-08-13T07:01:11.145Z,19.30
2018-08-13T07:02:32.322Z,19.39
2018-08-13T07:03:11.401Z,19.41
2018-08-13T07:04:11.545Z,19.42
2018-08-13T07:05:11.701Z,19.31
2018-08-13T07:06:11.887Z,19.42
2018-08-13T07:07:11.984Z,19.38
2018-08-13T07:08:12.126Z,19.34
2018-08-13T07:09:12.269Z,19.20
2018-08-13T07:10:12.410Z,19.20
2018-08-13T07:11:12.550Z,19.26
2018-08-13T07:12:12.687Z,19.26
2018-08-13T07:13:12.833Z,19.23
2018-08-13T07:14:12.975Z,19.35
2018-08-13T07:15:13.115Z,19.32
2018-08-13T07:16:13.253Z,19.39
2018-08-13T07:17:13.394Z,19.45
2018-08-13T07:18:13.538Z,19.50
2018-08-13T07:19:13.680Z,19.34
2018-08-13T07:20:13.824Z,19.30
2018-08-13T07:21:13.965Z,19.37
2018-08-13T07:22:14.183Z,19.45
2018-08-13T07:23:14.254Z,19.47
2018-08-13T07:24:14.383Z,19.47
2018-08-13T07:25:14.539Z,19.52
2018-08-13T07:26:14.673Z,19.53
2018-08-13T07:27:14.813Z,19.60
2018-08-13T07:28:14.963Z,19.49
2018-08-13T07:29:15.102Z,19.52
2018-08-13T07:30:15.241Z,19.47
2018-08-13T07:31:15.384Z,19.39
2018-08-13T07:32:15.524Z,19.32
2018-08-13T07:33:15.712Z,19.30
2018-08-13T07:34:15.879Z,19.16
2018-08-13T07:35:15.891Z,19.08
2018-08-13T07:36:16.032Z,19.01
2018-08-13T07:37:16.170Z,18.82
2018-08-13T07:38:16.304Z,18.61
2018-08-13T07:39:16.463Z,18.39
2018-08-13T07:40:16.576Z,18.42
2018-08-13T07:41:16.715Z,18.27
2018-08-13T07:42:16.860Z,18.21
2018-08-13T07:43:17.000Z,18.12
2018-08-13T07:44:17.139Z,18.01
2018-08-13T07:45:17.273Z,17.97
2018-08-13T07:46:17.409Z,18.03
2018-08-13T07:47:17.556Z,17.90
2018-08-13T07:48:17.705Z,17.78
2018-08-13T07:49:17.836Z,17.76
2018-08-13T07:50:17.975Z,17.69
2018-08-13T07:51:18.116Z,17.71
2018-08-13T07:52:18.253Z,17.68
2018-08-13T07:53:18.392Z,17.71
2018-08-13T07:54:18.534Z,17.69
2018-08-13T07:55:18.674Z,17.75
2018-08-13T07:56:18.802Z,17.69
2018-08-13T07:57:18.950Z,17.75
2018-08-13T07:58:19.098Z,17.76
2018-08-13T07:59:19.241Z,17.73
2018-08-13T08:00:19.379Z,17.76
2018-08-13T08:01:19.518Z,17.73
2018-08-13T08:02:19.650Z,17.87
2018-08-13T08:03:19.803Z,17.83
2018-08-13T08:04:19.937Z,17.99
2018-08-13T08:05:20.081Z,17.99
2018-08-13T08:06:20.217Z,18.03
2018-08-13T08:07:20.355Z,18.09
2018-08-13T08:08:20.495Z,18.15
2018-08-13T08:09:20.635Z,18.03
2018-08-13T08:10:20.772Z,18.18
2018-08-13T08:11:20.907Z,18.15
2018-08-13T08:12:21.043Z,18.26
2018-08-13T08:13:21.178Z,18.24
2018-08-13T08:14:21.317Z,18.24
2018-08-13T08:15:22.328Z,18.24
2018-08-13T08:17:53.677Z,18.33
2018-08-13T08:18:53.769Z,18.31
2018-08-13T08:19:53.906Z,18.36
2018-08-13T08:20:54.051Z,18.41
2018-08-13T08:21:54.202Z,18.43
2018-08-13T08:22:54.347Z,18.39
2018-08-13T08:23:54.547Z,18.48
2018-08-13T08:24:54.565Z,18.51
2018-08-13T08:25:54.697Z,18.61
2018-08-13T08:26:54.834Z,18.61
2018-08-13T08:27:54.971Z,18.64
2018-08-13T08:28:55.111Z,18.67
2018-08-13T08:29:55.251Z,18.70
2018-08-13T08:30:55.453Z,18.78
2018-08-13T08:31:55.585Z,18.78
2018-08-13T08:32:55.731Z,18.86
2018-08-13T08:33:55.876Z,18.86
2018-08-13T08:34:56.038Z,18.91
2018-08-13T08:35:56.177Z,19.00
2018-08-13T08:36:56.323Z,19.04
2018-08-13T08:37:56.463Z,19.19
2018-08-13T08:38:56.658Z,19.15
2018-08-13T08:39:56.765Z,19.23
2018-08-13T08:40:56.988Z,19.35
2018-08-13T08:41:57.044Z,19.34
2018-08-13T08:42:57.210Z,19.27
2018-08-13T08:43:57.351Z,19.39
2018-08-13T08:44:57.491Z,19.41
2018-08-13T08:45:57.688Z,19.47
2018-08-13T08:46:57.804Z,19.49
2018-08-13T08:47:57.934Z,19.59
2018-08-13T08:48:58.074Z,19.62
2018-08-13T08:49:58.213Z,19.62
2018-08-13T08:50:58.374Z,19.62
2018-08-13T08:51:58.509Z,19.72
2018-08-13T08:52:58.651Z,19.72
2018-08-13T08:53:58.790Z,19.77
2018-08-13T08:54:58.951Z,19.74
2018-08-13T08:55:59.097Z,19.71
2018-08-13T08:56:59.240Z,19.54
2018-08-13T08:57:59.376Z,19.49
2018-08-13T08:58:59.559Z,19.41
2018-08-13T08:59:59.693Z,19.31
2018-08-13T09:00:59.835Z,19.24
2018-08-13T09:01:59.982Z,19.16
2018-08-13T09:03:00.133Z,19.09
2018-08-13T09:04:00.274Z,19.04
2018-08-13T09:05:00.408Z,19.04
2018-08-13T09:06:00.644Z,18.93
2018-08-13T09:07:00.716Z,18.88
2018-08-13T09:08:00.860Z,18.81
2018-08-13T09:09:00.998Z,18.78
2018-08-13T09:10:01.168Z,18.71
2018-08-13T09:11:01.302Z,18.78
2018-08-13T09:12:01.440Z,18.75
2018-08-13T09:13:01.602Z,18.75
2018-08-13T09:14:01.743Z,18.79
2018-08-13T09:15:01.872Z,18.82
2018-08-13T09:16:02.010Z,18.82
2018-08-13T09:17:02.168Z,18.86
2018-08-13T09:18:02.310Z,18.83
2018-08-13T09:19:02.506Z,18.67
2018-08-13T09:20:02.586Z,18.86
2018-08-13T09:21:02.722Z,18.70
2018-08-13T09:22:02.858Z,18.67
2018-08-13T09:23:03.018Z,18.70
2018-08-13T09:24:03.139Z,18.66
2018-08-13T09:25:03.278Z,18.61
2018-08-13T09:26:03.418Z,18.60
2018-08-13T09:27:03.569Z,18.60
2018-08-13T09:28:03.709Z,18.66
2018-08-13T09:29:03.850Z,18.57
2018-08-13T09:30:03.991Z,18.58
2018-08-13T09:31:04.115Z,18.56
2018-08-13T09:32:04.317Z,18.56
2018-08-13T09:33:04.334Z,18.52
2018-08-13T09:34:04.469Z,18.54
2018-08-13T09:35:04.646Z,18.56
2018-08-13T09:36:04.779Z,18.45
2018-08-13T09:37:04.917Z,18.45
2018-08-13T09:38:05.048Z,18.49
2018-08-13T09:39:05.203Z,18.45
2018-08-13T09:40:05.393Z,18.43
2018-08-13T09:41:05.565Z,18.46
2018-08-13T09:42:05.716Z,18.38
2018-08-13T09:43:05.898Z,18.41
2018-08-13T09:44:06.074Z,18.45
2018-08-13T09:45:06.083Z,18.42
2018-08-13T09:46:06.218Z,18.52
2018-08-13T09:47:06.360Z,18.52
2018-08-13T09:48:06.532Z,18.49
2018-08-13T09:49:06.631Z,18.58
2018-08-13T09:50:06.772Z,18.49
2018-08-13T09:51:06.917Z,18.63
2018-08-13T09:52:07.054Z,18.54
2018-08-13T09:53:07.195Z,18.48
2018-08-13T09:54:07.331Z,18.49
2018-08-13T09:55:07.477Z,18.46
2018-08-13T09:56:07.616Z,18.41
2018-08-13T09:57:07.750Z,18.42
2018-08-13T09:58:07.891Z,18.43
2018-08-13T09:59:08.028Z,18.42
2018-08-13T10:00:08.200Z,18.48
2018-08-13T10:01:08.308Z,18.51
2018-08-13T10:02:08.445Z,18.46
2018-08-13T10:03:08.590Z,18.51
2018-08-13T10:04:08.729Z,18.60
2018-08-13T10:05:08.877Z,18.56
2018-08-13T10:06:09.011Z,18.61
2018-08-13T10:07:09.150Z,18.49
2018-08-13T10:08:09.288Z,18.31
2018-08-13T10:09:09.468Z,18.28
2018-08-13T10:10:09.577Z,18.26
2018-08-13T10:11:09.709Z,18.12
2018-08-13T10:12:09.852Z,18.17
2018-08-13T10:13:10.018Z,18.23
2018-08-13T10:14:10.164Z,18.31
2018-08-13T10:15:10.294Z,18.27
2018-08-13T10:16:10.429Z,18.31
2018-08-13T10:17:10.573Z,18.41
2018-08-13T10:18:10.711Z,18.42
2018-08-13T10:19:10.846Z,18.45
2018-08-13T10:20:10.987Z,18.57
2018-08-13T10:21:11.126Z,18.49
2018-08-13T10:22:11.733Z,18.45
2018-08-13T10:23:11.396Z,18.56
2018-08-13T10:24:11.538Z,18.61
2018-08-13T10:25:11.680Z,18.66
2018-08-13T10:26:11.813Z,18.64
2018-08-13T10:27:11.953Z,18.68
2018-08-13T10:28:12.095Z,18.60
2018-08-13T10:29:12.229Z,18.58
2018-08-13T10:30:12.381Z,18.60
2018-08-13T10:31:12.514Z,18.52
2018-08-13T10:32:12.665Z,18.61
2018-08-13T10:33:12.799Z,18.56
2018-08-13T10:34:12.947Z,18.56
2018-08-13T10:35:13.087Z,18.64
2018-08-13T10:36:13.228Z,18.64
2018-08-13T10:37:13.390Z,18.57
2018-08-13T10:38:13.530Z,18.54
2018-08-13T10:39:13.672Z,18.48
2018-08-13T10:40:13.811Z,18.51
2018-08-13T10:41:13.952Z,18.51
2018-08-13T10:42:14.099Z,18.49
2018-08-13T10:43:14.239Z,18.51
2018-08-13T10:44:14.376Z,18.64
2018-08-13T10:45:14.518Z,18.66
2018-08-13T10:46:14.652Z,18.74
2018-08-13T10:47:14.801Z,18.70
2018-08-13T10:48:14.941Z,18.82
2018-08-13T10:49:15.088Z,18.91
2018-08-13T10:50:15.228Z,18.88
2018-08-13T10:51:15.367Z,18.98
2018-08-13T10:52:15.513Z,18.98
2018-08-13T10:53:15.645Z,19.07
2018-08-13T10:54:15.792Z,19.07
2018-08-13T10:55:15.927Z,19.13
2018-08-13T10:56:16.085Z,19.24
2018-08-13T10:57:16.203Z,19.35
2018-08-13T10:58:16.345Z,19.35
2018-08-13T10:59:16.487Z,19.37
2018-08-13T11:00:16.621Z,19.49
2018-08-13T11:01:16.810Z,19.54
2018-08-13T11:02:16.904Z,19.60
2018-08-13T11:03:17.041Z,19.50
2018-08-13T11:04:17.190Z,19.54
2018-08-13T11:05:17.327Z,19.59
2018-08-13T11:06:17.465Z,19.53
2018-08-13T11:07:17.604Z,19.53
2018-08-13T11:08:17.743Z,19.59
2018-08-13T11:09:17.880Z,19.56
2018-08-13T11:10:18.084Z,19.59
2018-08-13T11:11:18.162Z,19.60
2018-08-13T11:12:18.298Z,19.53
2018-08-13T11:13:18.450Z,19.47
2018-08-13T11:14:18.587Z,19.39
2018-08-13T11:15:18.732Z,19.45
2018-08-13T11:16:18.895Z,19.32
2018-08-13T11:17:19.023Z,19.37
2018-08-13T11:18:19.167Z,19.37
2018-08-13T11:19:19.303Z,19.37
2018-08-13T11:20:19.450Z,19.30
2018-08-13T11:21:19.591Z,19.27
2018-08-13T11:22:19.731Z,19.30
2018-08-13T11:23:19.875Z,19.27
2018-08-13T11:24:20.014Z,19.32
2018-08-13T11:25:20.199Z,19.27
2018-08-13T11:26:20.296Z,19.35
2018-08-13T11:27:20.473Z,19.27
2018-08-13T11:28:20.626Z,19.27
2018-08-13T11:29:20.758Z,19.17
2018-08-13T11:30:20.897Z,19.20
2018-08-13T11:31:21.137Z,19.17
2018-08-13T11:32:21.186Z,19.32
2018-08-13T11:33:21.343Z,19.30
2018-08-13T11:34:21.470Z,19.38
2018-08-13T11:35:21.631Z,19.41
2018-08-13T11:36:21.756Z,19.47
2018-08-13T11:37:21.903Z,19.49
2018-08-13T11:38:22.046Z,19.54
2018-08-13T11:39:22.190Z,19.50
2018-08-13T11:40:22.329Z,19.50
2018-08-13T11:41:22.476Z,19.50
2018-08-13T11:42:22.613Z,19.47
2018-08-13T11:43:22.772Z,19.52
2018-08-13T11:44:22.907Z,19.54
2018-08-13T11:45:23.048Z,19.59
2018-08-13T11:46:23.203Z,19.54
2018-08-13T11:47:23.346Z,19.63
2018-08-13T11:48:23.486Z,19.47
2018-08-13T11:49:23.637Z,19.50
2018-08-13T11:50:23.774Z,19.39
2018-08-13T11:51:23.928Z,19.49
2018-08-13T11:52:24.076Z,19.42
2018-08-13T11:53:24.206Z,19.38
2018-08-13T11:54:24.342Z,19.44
2018-08-13T11:55:24.496Z,19.42
2018-08-13T11:56:24.737Z,19.47
2018-08-13T11:57:24.742Z,19.52
2018-08-13T11:58:24.880Z,19.59
2018-08-13T11:59:25.031Z,19.53
2018-08-13T12:00:25.269Z,19.60
2018-08-13T12:01:25.287Z,19.68
2018-08-13T12:02:25.426Z,19.64
2018-08-13T12:03:25.578Z,19.64
2018-08-13T12:04:25.719Z,19.75
2018-08-13T12:05:25.857Z,19.79
2018-08-13T12:06:25.996Z,19.90
2018-08-13T12:07:26.176Z,19.92
2018-08-13T12:08:26.359Z,19.99
2018-08-13T12:09:26.456Z,19.90
2018-08-13T12:10:26.596Z,19.90
2018-08-13T12:11:26.749Z,19.87
2018-08-13T12:12:26.878Z,19.90
2018-08-13T12:13:27.019Z,19.99
2018-08-13T12:14:27.160Z,19.96
2018-08-13T12:15:27.330Z,19.87
2018-08-13T12:16:27.475Z,19.87
2018-08-13T12:17:27.619Z,20.00
2018-08-13T12:18:27.754Z,19.97
2018-08-13T12:19:27.929Z,20.02
2018-08-13T12:20:28.042Z,20.00
2018-08-13T12:21:28.179Z,20.04
2018-08-13T12:22:28.318Z,20.11
2018-08-13T12:23:28.479Z,20.15
2018-08-13T12:24:28.624Z,20.09
2018-08-13T12:25:28.763Z,20.02
2018-08-13T12:26:28.942Z,20.02
2018-08-13T12:27:29.066Z,20.17
2018-08-13T12:28:29.210Z,20.17
2018-08-13T12:29:29.356Z,20.19
2018-08-13T12:30:29.515Z,20.25
2018-08-13T12:31:29.652Z,20.19
2018-08-13T12:32:29.789Z,20.32
2018-08-13T12:33:29.949Z,20.32
2018-08-13T12:34:30.085Z,20.36
2018-08-13T12:35:30.221Z,20.33
2018-08-13T12:36:30.361Z,20.36
2018-08-13T12:37:30.530Z,20.37
2018-08-13T12:38:30.654Z,20.53
2018-08-13T12:39:30.795Z,20.53
2018-08-13T12:40:30.944Z,20.61
2018-08-13T12:41:31.087Z,20.65
2018-08-13T12:42:31.222Z,20.70
2018-08-13T12:43:31.369Z,20.70
2018-08-13T12:44:31.525Z,20.70
2018-08-13T12:45:31.658Z,20.79
2018-08-13T12:46:31.796Z,20.82
2018-08-13T12:47:31.937Z,20.80
2018-08-13T12:48:32.121Z,20.93
2018-08-13T12:49:32.353Z,20.97
2018-08-13T12:50:32.378Z,21.11
2018-08-13T12:51:32.517Z,20.97
2018-08-13T12:52:32.671Z,21.01
2018-08-13T12:53:32.806Z,20.98
2018-08-13T12:54:32.944Z,20.97
2018-08-13T12:55:33.090Z,21.16
2018-08-13T12:56:33.265Z,21.16
2018-08-13T12:57:33.430Z,21.30